createdAt,value
2019-03-24T00:00:37.692Z,30.37
2019-03-24T00:03:09.611Z,30.90
2019-03-24T00:05:41.437Z,31.23
2019-03-24T00:08:13.318Z,31.27
2019-03-24T00:10:45.305Z,28.43
2019-03-24T00:13:18.073Z,27.20
2019-03-24T00:15:50.898Z,28.80
2019-03-24T00:18:22.829Z,28.83
2019-03-24T00:20:55.136Z,30.90
2019-03-24T00:23:27.093Z,28.70
2019-03-24T00:25:59.070Z,27.30
2019-03-24T00:28:32.010Z,30.90
2019-03-24T00:31:04.177Z,28.47
2019-03-24T00:33:35.976Z,30.80
2019-03-24T00:36:08.106Z,27.73
2019-03-24T00:38:40.087Z,28.60
2019-03-24T00:41:12.075Z,29.03
2019-03-24T00:43:43.974Z,27.23
2019-03-24T00:46:15.968Z,28.17
2019-03-24T00:48:47.961Z,28.53
2019-03-24T00:51:19.821Z,27.67
2019-03-24T00:53:51.777Z,27.53
2019-03-24T00:56:23.680Z,28.20
2019-03-24T00:58:55.580Z,27.53
2019-03-24T01:01:27.361Z,27.80
2019-03-24T01:03:59.319Z,27.00
2019-03-24T01:06:31.670Z,26.20
2019-03-24T01:09:04.349Z,27.90
2019-03-24T01:11:37.405Z,27.67
2019-03-24T01:14:09.403Z,26.07
2019-03-24T01:16:41.353Z,27.07
2019-03-24T01:19:13.202Z,26.40
2019-03-24T01:21:45.095Z,26.13
2019-03-24T01:24:17.243Z,27.03
2019-03-24T01:26:49.037Z,24.87
2019-03-24T01:29:20.872Z,26.30
2019-03-24T01:31:52.903Z,25.43
2019-03-24T01:34:24.815Z,26.70
2019-03-24T01:36:56.704Z,25.70
2019-03-24T01:39:28.608Z,25.53
2019-03-24T01:42:00.807Z,24.80
2019-03-24T01:44:32.634Z,25.90
2019-03-24T01:47:04.521Z,24.07
2019-03-24T01:49:36.398Z,25.10
2019-03-24T01:52:08.473Z,24.90
2019-03-24T01:54:40.385Z,24.13
2019-03-24T01:57:12.223Z,24.97
2019-03-24T01:59:44.124Z,24.10
2019-03-24T02:02:16.271Z,23.73
2019-03-24T02:04:48.262Z,23.70
2019-03-24T02:07:20.235Z,24.00
2019-03-24T02:09:52.186Z,25.90
2019-03-24T02:12:24.143Z,24.10
2019-03-24T02:14:56.076Z,25.60
2019-03-24T02:17:28.156Z,23.60
2019-03-24T02:20:00.042Z,24.53
2019-03-24T02:22:31.864Z,22.23
2019-03-24T02:25:03.851Z,22.30
2019-03-24T02:27:35.738Z,23.47
2019-03-24T02:30:08.503Z,22.10
2019-03-24T02:32:40.488Z,22.37
2019-03-24T02:35:12.834Z,23.00
2019-03-24T02:37:44.740Z,25.10
2019-03-24T02:40:17.053Z,23.30
2019-03-24T02:42:48.927Z,21.97
2019-03-24T02:45:20.893Z,22.63
2019-03-24T02:47:53.837Z,21.37
2019-03-24T02:50:25.737Z,22.73
2019-03-24T02:52:57.633Z,21.93
2019-03-24T02:55:29.542Z,22.27
2019-03-24T02:58:01.354Z,22.67
2019-03-24T03:00:33.363Z,20.97
2019-03-24T03:03:05.387Z,21.30
2019-03-24T03:05:37.383Z,20.07
2019-03-24T03:08:10.608Z,21.07
2019-03-24T03:10:42.626Z,20.80
2019-03-24T03:13:14.637Z,21.23
2019-03-24T03:15:46.588Z,20.00
2019-03-24T03:18:19.363Z,22.50
2019-03-24T03:20:51.282Z,21.57
2019-03-24T03:23:23.246Z,22.43
2019-03-24T03:25:55.195Z,21.77
2019-03-24T03:28:27.175Z,21.20
2019-03-24T03:30:59.064Z,21.77
2019-03-24T03:33:30.879Z,22.27
2019-03-24T03:36:03.016Z,21.87
2019-03-24T03:38:34.834Z,20.30
2019-03-24T03:41:07.166Z,21.70
2019-03-24T03:43:39.150Z,22.20
2019-03-24T03:46:11.072Z,20.47
2019-03-24T03:48:42.902Z,21.23
2019-03-24T03:51:14.966Z,19.63
2019-03-24T03:53:46.764Z,21.80
2019-03-24T03:56:18.776Z,22.43
2019-03-24T03:58:50.610Z,20.33
2019-03-24T04:01:22.486Z,20.90
2019-03-24T04:03:54.326Z,21.13
2019-03-24T04:06:26.178Z,20.77
2019-03-24T04:08:58.155Z,20.80
2019-03-24T04:11:30.083Z,20.70
2019-03-24T04:14:02.112Z,20.77
2019-03-24T04:16:33.967Z,20.40
2019-03-24T04:19:05.950Z,20.40
2019-03-24T04:21:37.907Z,19.47
2019-03-24T04:24:09.729Z,19.80
2019-03-24T04:26:41.642Z,20.87
2019-03-24T04:29:13.661Z,19.47
2019-03-24T04:31:45.663Z,20.63
2019-03-24T04:34:17.604Z,20.37
2019-03-24T04:36:49.552Z,18.53
2019-03-24T04:39:21.450Z,19.10
2019-03-24T04:41:53.648Z,19.43
2019-03-24T04:44:25.476Z,18.77
2019-03-24T04:46:57.569Z,18.43
2019-03-24T04:49:29.532Z,19.50
2019-03-24T04:52:02.571Z,17.83
2019-03-24T04:54:34.533Z,20.17
2019-03-24T04:57:06.483Z,19.67
2019-03-24T04:59:38.394Z,18.60
2019-03-24T05:02:10.320Z,18.80
2019-03-24T05:04:42.194Z,19.70
2019-03-24T05:07:14.033Z,21.00
2019-03-24T05:09:46.179Z,20.77
2019-03-24T05:12:18.246Z,19.30
2019-03-24T05:14:50.151Z,20.07
2019-03-24T05:17:27.078Z,19.70
2019-03-24T05:19:55.776Z,19.20
2019-03-24T05:22:27.597Z,19.47
2019-03-24T05:24:59.544Z,19.30
2019-03-24T05:27:31.346Z,22.23
2019-03-24T05:30:03.256Z,26.23
2019-03-24T05:32:35.104Z,29.30
2019-03-24T05:35:07.526Z,28.00
2019-03-24T05:37:39.514Z,26.10
2019-03-24T05:40:11.699Z,22.07
2019-03-24T05:42:43.851Z,21.20
2019-03-24T05:45:16.259Z,22.10
2019-03-24T05:47:48.084Z,19.67
2019-03-24T05:50:19.916Z,20.00
2019-03-24T05:52:51.841Z,20.70
2019-03-24T05:55:23.670Z,17.43
2019-03-24T05:57:55.583Z,19.53
2019-03-24T06:00:27.600Z,17.70
2019-03-24T06:02:59.597Z,19.50
2019-03-24T06:05:31.684Z,16.80
2019-03-24T06:08:03.495Z,17.37
2019-03-24T06:10:35.560Z,16.97
2019-03-24T06:13:07.544Z,16.67
2019-03-24T06:15:39.428Z,18.20
2019-03-24T06:18:11.376Z,17.87
2019-03-24T06:20:43.261Z,17.60
2019-03-24T06:23:15.190Z,16.37
2019-03-24T06:25:47.250Z,17.20
2019-03-24T06:28:19.138Z,18.00
2019-03-24T06:30:51.106Z,17.97
2019-03-24T06:33:22.940Z,19.00
2019-03-24T06:35:54.877Z,18.03
2019-03-24T06:38:26.765Z,17.90
2019-03-24T06:40:58.750Z,17.53
2019-03-24T06:43:31.723Z,18.40
2019-03-24T06:46:06.769Z,19.37
2019-03-24T06:48:39.722Z,19.73
2019-03-24T06:51:11.542Z,17.53
2019-03-24T06:53:43.363Z,18.10
2019-03-24T06:56:15.425Z,18.30
2019-03-24T06:58:47.353Z,16.97
2019-03-24T07:01:19.163Z,17.50
2019-03-24T07:03:52.152Z,17.80
2019-03-24T07:06:24.136Z,17.73
2019-03-24T07:08:56.080Z,17.97
2019-03-24T07:11:28.031Z,20.50
2019-03-24T07:13:59.975Z,18.80
2019-03-24T07:16:32.028Z,20.37
2019-03-24T07:19:03.850Z,20.10
2019-03-24T07:21:35.852Z,19.30
2019-03-24T07:24:07.763Z,19.40
2019-03-24T07:26:39.611Z,19.20
2019-03-24T07:29:11.576Z,19.70
2019-03-24T07:31:43.744Z,19.40
2019-03-24T07:34:16.231Z,19.50
2019-03-24T07:36:48.255Z,19.33
2019-03-24T07:39:20.229Z,18.97
2019-03-24T07:41:52.218Z,21.43
2019-03-24T07:44:25.197Z,22.50
2019-03-24T07:46:57.124Z,21.30
2019-03-24T07:49:29.162Z,22.87
2019-03-24T07:52:01.083Z,22.10
2019-03-24T07:54:32.920Z,23.20
2019-03-24T07:57:05.088Z,24.47
2019-03-24T07:59:36.985Z,25.10
2019-03-24T08:02:08.898Z,24.80
2019-03-24T08:04:40.898Z,27.87
2019-03-24T08:07:12.904Z,26.00
2019-03-24T08:09:44.740Z,26.87
2019-03-24T08:12:16.586Z,25.60
2019-03-24T08:14:48.536Z,25.33
2019-03-24T08:17:20.439Z,25.57
2019-03-24T08:19:52.252Z,26.30
2019-03-24T08:22:24.226Z,25.10
2019-03-24T08:24:56.181Z,23.63
2019-03-24T08:27:28.053Z,23.30
2019-03-24T08:30:00.116Z,23.10
2019-03-24T08:32:32.283Z,22.50
2019-03-24T08:35:04.197Z,22.80
2019-03-24T08:37:36.195Z,22.87
2019-03-24T08:40:08.808Z,22.57
2019-03-24T08:42:40.711Z,22.97
2019-03-24T08:45:21.017Z,23.43
2019-03-24T08:47:52.853Z,25.60
2019-03-24T08:50:24.653Z,24.53
2019-03-24T08:52:56.826Z,24.53
2019-03-24T08:55:28.653Z,23.80
2019-03-24T08:58:00.554Z,21.40
2019-03-24T09:00:32.393Z,24.57
2019-03-24T09:03:04.467Z,24.50
2019-03-24T09:05:36.379Z,24.97
2019-03-24T09:08:08.262Z,25.03
2019-03-24T09:10:40.145Z,25.40
2019-03-24T09:13:12.719Z,25.07
2019-03-24T09:15:44.690Z,26.23
2019-03-24T09:18:16.563Z,27.43
2019-03-24T09:20:48.595Z,25.57
2019-03-24T09:23:20.514Z,28.27
2019-03-24T09:25:52.771Z,29.27
2019-03-24T09:28:24.659Z,28.53
2019-03-24T09:30:56.524Z,27.77
2019-03-24T09:33:28.439Z,27.67
2019-03-24T09:36:00.258Z,29.23
2019-03-24T09:38:32.149Z,29.37
2019-03-24T09:41:04.201Z,28.17
2019-03-24T09:43:37.194Z,29.67
2019-03-24T09:46:09.268Z,33.30
2019-03-24T09:48:41.115Z,31.17
2019-03-24T09:51:14.094Z,31.20
2019-03-24T09:53:46.163Z,31.20
2019-03-24T09:56:18.130Z,31.53
2019-03-24T09:58:50.067Z,32.30
2019-03-24T10:01:22.210Z,34.03
2019-03-24T10:03:54.235Z,32.20
2019-03-24T10:06:26.210Z,33.17
2019-03-24T10:08:58.190Z,34.07
2019-03-24T10:11:30.101Z,35.03
2019-03-24T10:14:02.076Z,34.07
2019-03-24T10:16:34.062Z,34.37
2019-03-24T10:19:13.969Z,34.43
2019-03-24T10:21:39.490Z,36.77
2019-03-24T10:24:11.385Z,39.50
2019-03-24T10:26:43.348Z,39.53
2019-03-24T10:29:15.180Z,37.20
2019-03-24T10:31:47.291Z,38.17
2019-03-24T10:34:19.191Z,38.27
2019-03-24T10:36:51.003Z,39.70
2019-03-24T10:39:22.915Z,41.13
2019-03-24T10:41:54.895Z,40.80
2019-03-24T10:44:26.885Z,40.37
2019-03-24T10:46:58.841Z,43.67
2019-03-24T10:49:30.768Z,42.40
2019-03-24T10:52:02.598Z,42.03
2019-03-24T10:54:34.506Z,42.17
2019-03-24T10:57:06.504Z,42.70
2019-03-24T10:59:38.338Z,43.30
2019-03-24T11:02:10.151Z,40.43
2019-03-24T11:04:42.167Z,42.23
2019-03-24T11:07:14.127Z,40.27
2019-03-24T11:09:46.057Z,41.23
2019-03-24T11:12:19.052Z,40.40
2019-03-24T11:14:50.915Z,42.63
2019-03-24T11:17:23.010Z,40.67
2019-03-24T11:19:54.819Z,39.17
2019-03-24T11:22:26.703Z,39.43
2019-03-24T11:24:58.608Z,36.50
2019-03-24T11:27:30.520Z,38.50
2019-03-24T11:30:02.402Z,39.87
2019-03-24T11:32:34.210Z,36.00
2019-03-24T11:35:06.581Z,36.90
2019-03-24T11:37:38.515Z,40.77
2019-03-24T11:40:11.668Z,41.20
2019-03-24T11:42:43.492Z,40.30
2019-03-24T11:45:16.106Z,41.17
2019-03-24T11:47:48.181Z,41.10
2019-03-24T11:50:20.223Z,40.87
2019-03-24T11:52:52.292Z,41.90
2019-03-24T11:55:24.126Z,38.70
2019-03-24T11:58:05.319Z,40.27
2019-03-24T12:00:37.510Z,39.30
2019-03-24T12:03:09.501Z,39.50
2019-03-24T12:05:41.567Z,40.83
2019-03-24T12:08:13.645Z,38.77
2019-03-24T12:10:45.680Z,40.80
2019-03-24T12:13:17.618Z,40.17
2019-03-24T12:15:49.621Z,42.60
2019-03-24T12:18:21.640Z,41.40
2019-03-24T12:20:53.507Z,40.97
2019-03-24T12:23:25.487Z,39.37
2019-03-24T12:25:57.577Z,39.40
2019-03-24T12:28:29.408Z,42.17
2019-03-24T12:31:01.216Z,42.03
2019-03-24T12:33:33.114Z,41.57
2019-03-24T12:36:05.089Z,41.53
2019-03-24T12:38:37.040Z,42.03
2019-03-24T12:41:08.947Z,42.30
2019-03-24T12:43:40.968Z,40.40
2019-03-24T12:46:13.129Z,39.53
2019-03-24T12:48:44.960Z,38.20
2019-03-24T12:51:16.768Z,38.67
2019-03-24T12:53:48.637Z,41.27
2019-03-24T12:56:20.566Z,41.33
2019-03-24T12:58:52.592Z,43.77
2019-03-24T13:01:24.480Z,42.53
2019-03-24T13:03:56.525Z,41.17
2019-03-24T13:06:28.359Z,42.10
2019-03-24T13:09:00.208Z,41.40
2019-03-24T13:11:32.185Z,41.80
2019-03-24T13:14:04.115Z,44.63
2019-03-24T13:16:36.024Z,38.53
2019-03-24T13:19:07.946Z,43.50
2019-03-24T13:21:40.239Z,42.63
2019-03-24T13:24:12.351Z,41.10
2019-03-24T13:26:44.155Z,42.40
2019-03-24T13:29:16.329Z,40.90
2019-03-24T13:31:48.980Z,41.47
2019-03-24T13:34:21.091Z,44.53
2019-03-24T13:36:53.161Z,42.17
2019-03-24T13:39:25.086Z,42.50
2019-03-24T13:41:56.959Z,42.90
2019-03-24T13:44:29.133Z,43.60
2019-03-24T13:47:02.135Z,41.87
2019-03-24T13:49:34.000Z,39.10
2019-03-24T13:52:05.950Z,40.70
2019-03-24T13:54:38.008Z,40.93
2019-03-24T13:57:10.158Z,40.60
2019-03-24T13:59:42.146Z,39.97
2019-03-24T14:02:14.089Z,40.83
2019-03-24T14:04:47.539Z,40.97
2019-03-24T14:07:20.532Z,39.37
2019-03-24T14:09:53.428Z,38.83
2019-03-24T14:12:25.265Z,39.60
2019-03-24T14:14:57.344Z,40.67
2019-03-24T14:17:29.269Z,38.57
2019-03-24T14:20:01.448Z,41.10
2019-03-24T14:22:33.471Z,39.07
2019-03-24T14:25:06.090Z,36.87
2019-03-24T14:27:38.388Z,37.50
2019-03-24T14:30:12.044Z,37.33
2019-03-24T14:32:43.872Z,38.30
2019-03-24T14:35:15.965Z,38.27
2019-03-24T14:37:47.856Z,36.30
2019-03-24T14:40:19.687Z,38.10
2019-03-24T14:42:51.635Z,37.30
2019-03-24T14:45:23.557Z,37.13
2019-03-24T14:47:55.533Z,38.47
2019-03-24T14:50:27.525Z,39.17
2019-03-24T14:52:59.425Z,36.67
2019-03-24T14:55:32.399Z,37.57
2019-03-24T14:58:04.670Z,38.77
2019-03-24T15:00:39.121Z,38.73
2019-03-24T15:03:11.135Z,36.67
2019-03-24T15:05:43.424Z,39.43
2019-03-24T15:08:15.573Z,38.53
2019-03-24T15:10:47.494Z,38.57
2019-03-24T15:13:19.396Z,38.87
2019-03-24T15:15:51.429Z,38.23
2019-03-24T15:18:23.275Z,37.67
2019-03-24T15:21:05.134Z,44.33
2019-03-24T15:23:28.940Z,41.67
2019-03-24T15:26:00.968Z,38.70
2019-03-24T15:28:33.082Z,38.23
2019-03-24T15:31:04.968Z,37.50
2019-03-24T15:33:37.008Z,37.97
2019-03-24T15:36:08.821Z,37.43
2019-03-24T15:38:43.608Z,39.43
2019-03-24T15:41:18.153Z,36.70
2019-03-24T15:43:49.187Z,35.87
2019-03-24T15:46:21.179Z,37.60
2019-03-24T15:48:53.088Z,35.87
2019-03-24T15:51:24.899Z,38.07
2019-03-24T15:53:56.866Z,38.00
2019-03-24T15:56:28.737Z,35.80
2019-03-24T15:59:00.564Z,35.67
2019-03-24T16:01:33.555Z,36.90
2019-03-24T16:04:05.525Z,35.70
2019-03-24T16:06:37.441Z,35.33
2019-03-24T16:09:10.073Z,33.60
2019-03-24T16:11:42.188Z,33.03
2019-03-24T16:14:14.065Z,33.40
2019-03-24T16:16:45.949Z,33.80
2019-03-24T16:19:17.917Z,33.43
2019-03-24T16:21:49.756Z,33.50
2019-03-24T16:24:21.603Z,33.87
2019-03-24T16:26:53.493Z,34.93
2019-03-24T16:29:25.478Z,32.33
2019-03-24T16:31:57.387Z,33.63
2019-03-24T16:34:29.207Z,31.60
2019-03-24T16:37:01.235Z,33.20
2019-03-24T16:39:33.110Z,33.80
2019-03-24T16:42:05.095Z,30.83
2019-03-24T16:44:36.907Z,31.73
2019-03-24T16:47:09.074Z,30.70
2019-03-24T16:49:41.176Z,31.87
2019-03-24T16:52:13.193Z,30.40
2019-03-24T16:54:45.177Z,30.63
2019-03-24T16:57:17.045Z,30.90
2019-03-24T16:59:48.856Z,31.60
2019-03-24T17:02:20.688Z,31.83
2019-03-24T17:04:52.609Z,31.50
2019-03-24T17:07:24.514Z,33.60
2019-03-24T17:09:56.346Z,32.10
2019-03-24T17:12:29.251Z,32.10
2019-03-24T17:15:01.094Z,31.63
2019-03-24T17:17:33.586Z,33.30
2019-03-24T17:20:05.978Z,32.53
2019-03-24T17:22:38.182Z,31.20
2019-03-24T17:25:10.199Z,31.90
2019-03-24T17:27:42.019Z,31.57
2019-03-24T17:30:14.313Z,31.63
2019-03-24T17:32:46.262Z,37.03
2019-03-24T17:35:18.140Z,33.97
2019-03-24T17:37:50.161Z,38.40
2019-03-24T17:40:22.047Z,35.53
2019-03-24T17:42:54.019Z,38.03
2019-03-24T17:45:26.002Z,39.43
2019-03-24T17:47:57.980Z,43.57
2019-03-24T17:50:29.951Z,42.73
2019-03-24T17:53:01.749Z,40.40
2019-03-24T17:55:33.628Z,41.63
2019-03-24T17:58:05.664Z,42.93
2019-03-24T18:00:41.159Z,41.47
2019-03-24T18:03:13.532Z,43.80
2019-03-24T18:05:45.523Z,46.57
2019-03-24T18:08:17.357Z,49.40
2019-03-24T18:10:49.161Z,50.03
2019-03-24T18:13:22.081Z,50.23
2019-03-24T18:15:54.148Z,51.33
2019-03-24T18:18:26.236Z,50.20
2019-03-24T18:20:58.133Z,51.77
2019-03-24T18:23:30.045Z,53.70
2019-03-24T18:26:01.954Z,53.47
2019-03-24T18:28:33.761Z,58.07
2019-03-24T18:31:05.905Z,56.07
2019-03-24T18:33:37.870Z,54.90
2019-03-24T18:36:09.838Z,55.80
2019-03-24T18:38:41.714Z,55.30
2019-03-24T18:41:13.755Z,57.00
2019-03-24T18:43:45.667Z,56.23
2019-03-24T18:46:17.510Z,54.53
2019-03-24T18:48:49.630Z,56.53
2019-03-24T18:51:21.611Z,57.70
2019-03-24T18:53:54.156Z,59.03
2019-03-24T18:56:25.959Z,62.00
2019-03-24T18:58:57.844Z,59.90
2019-03-24T19:01:29.869Z,60.07
2019-03-24T19:04:01.780Z,59.90
2019-03-24T19:06:33.596Z,57.90
2019-03-24T19:09:08.204Z,58.30
2019-03-24T19:11:40.353Z,58.60
2019-03-24T19:14:12.319Z,57.90
2019-03-24T19:16:44.297Z,58.60
2019-03-24T19:19:16.257Z,61.77
2019-03-24T19:21:48.147Z,59.93
2019-03-24T19:24:20.155Z,59.57
2019-03-24T19:26:52.071Z,58.27
2019-03-24T19:29:24.046Z,58.93
2019-03-24T19:31:56.002Z,56.67
2019-03-24T19:34:27.883Z,57.87
2019-03-24T19:37:00.228Z,57.30
2019-03-24T19:39:32.485Z,58.13
2019-03-24T19:42:04.492Z,60.27
2019-03-24T19:44:36.644Z,59.00
2019-03-24T19:47:08.655Z,56.80
2019-03-24T19:49:40.581Z,58.00
2019-03-24T19:52:12.496Z,56.40
2019-03-24T19:54:44.300Z,55.87
2019-03-24T19:57:16.277Z,57.10
2019-03-24T19:59:48.264Z,55.10
2019-03-24T20:02:20.123Z,55.37
2019-03-24T20:04:52.014Z,57.03
2019-03-24T20:07:23.958Z,58.90
2019-03-24T20:09:55.888Z,56.97
2019-03-24T20:12:27.890Z,56.77
2019-03-24T20:14:59.758Z,57.63
2019-03-24T20:17:31.839Z,58.60
2019-03-24T20:20:04.007Z,57.83
2019-03-24T20:22:36.148Z,54.47
2019-03-24T20:25:08.550Z,58.50
2019-03-24T20:27:40.619Z,60.40
2019-03-24T20:30:13.447Z,59.50
2019-03-24T20:32:45.353Z,60.23
2019-03-24T20:35:17.383Z,59.67
2019-03-24T20:37:49.358Z,55.90
2019-03-24T20:40:21.343Z,59.03
2019-03-24T20:42:53.259Z,57.77
2019-03-24T20:45:25.231Z,59.30
2019-03-24T20:47:57.348Z,56.60
2019-03-24T20:50:29.529Z,58.10
2019-03-24T20:53:05.607Z,57.43
2019-03-24T20:55:35.475Z,57.73
2019-03-24T20:58:07.450Z,55.73
2019-03-24T21:00:39.816Z,57.90
2019-03-24T21:03:12.199Z,56.87
2019-03-24T21:05:44.096Z,58.70
2019-03-24T21:08:16.043Z,57.77
2019-03-24T21:10:49.394Z,55.07
2019-03-24T21:13:21.300Z,58.07
2019-03-24T21:15:53.269Z,56.87
2019-03-24T21:18:25.097Z,55.57
2019-03-24T21:20:57.015Z,56.70
2019-03-24T21:23:29.955Z,57.03
2019-03-24T21:26:03.410Z,60.17
2019-03-24T21:28:35.242Z,55.53
2019-03-24T21:31:07.298Z,53.60
2019-03-24T21:33:39.498Z,57.00
2019-03-24T21:36:11.476Z,56.07
2019-03-24T21:38:43.475Z,55.87
2019-03-24T21:41:15.329Z,58.50
2019-03-24T21:43:47.178Z,58.57
2019-03-24T21:46:19.259Z,58.70
2019-03-24T21:48:51.237Z,59.37
2019-03-24T21:51:23.240Z,59.13
2019-03-24T21:53:55.262Z,58.30
2019-03-24T21:56:27.258Z,58.57
2019-03-24T21:58:59.087Z,58.83
2019-03-24T22:01:31.102Z,55.97
2019-03-24T22:04:03.054Z,57.10
2019-03-24T22:06:35.146Z,55.13
2019-03-24T22:09:09.393Z,56.90
2019-03-24T22:11:41.427Z,56.10
2019-03-24T22:14:15.534Z,54.67
2019-03-24T22:16:47.201Z,56.67
2019-03-24T22:19:19.148Z,54.30
2019-03-24T22:21:50.994Z,56.70
2019-03-24T22:24:22.908Z,56.20
2019-03-24T22:26:55.930Z,56.40
2019-03-24T22:29:27.931Z,54.00
2019-03-24T22:32:00.178Z,54.10
2019-03-24T22:34:32.080Z,58.47
2019-03-24T22:37:15.204Z,53.33
2019-03-24T22:39:37.658Z,54.60
2019-03-24T22:42:09.516Z,56.60
2019-03-24T22:44:41.441Z,57.73
2019-03-24T22:47:13.385Z,56.80
2019-03-24T22:49:45.244Z,56.13
2019-03-24T22:52:17.288Z,57.33
2019-03-24T22:54:49.148Z,56.27
2019-03-24T22:57:21.259Z,59.50
2019-03-24T22:59:53.171Z,57.93
2019-03-24T23:02:25.390Z,59.60
2019-03-24T23:04:57.591Z,60.30
2019-03-24T23:07:29.898Z,58.17
2019-03-24T23:10:01.831Z,60.37
2019-03-24T23:12:35.343Z,59.43
2019-03-24T23:15:07.883Z,56.07
2019-03-24T23:17:39.886Z,58.70
2019-03-24T23:20:12.323Z,60.93
2019-03-24T23:22:44.490Z,56.40
2019-03-24T23:25:16.489Z,59.90
2019-03-24T23:27:48.644Z,60.10
2019-03-24T23:30:21.169Z,59.63
2019-03-24T23:32:53.247Z,58.90
2019-03-24T23:35:25.133Z,58.90
2019-03-24T23:37:58.392Z,57.40
2019-03-24T23:40:30.301Z,58.17
2019-03-24T23:43:02.576Z,55.67
2019-03-24T23:45:34.630Z,58.57
2019-03-24T23:48:06.877Z,59.60
2019-03-24T23:50:38.793Z,57.30
2019-03-24T23:53:10.849Z,58.57
2019-03-24T23:55:42.973Z,55.60
2019-03-24T23:58:14.918Z,60.07
